createdAt,value
2019-05-06T00:00:20.412Z,3.10
2019-05-06T00:02:51.061Z,3.97
2019-05-06T00:05:21.607Z,3.83
2019-05-06T00:07:55.207Z,5.83
2019-05-06T00:10:27.928Z,3.80
2019-05-06T00:12:58.736Z,4.17
2019-05-06T00:15:29.613Z,2.73
2019-05-06T00:18:00.142Z,2.70
2019-05-06T00:20:30.975Z,3.30
2019-05-06T00:23:07.070Z,3.30
2019-05-06T00:25:53.775Z,4.73
2019-05-06T00:28:53.951Z,6.13
2019-05-06T00:31:24.912Z,3.73
2019-05-06T00:33:55.594Z,3.60
2019-05-06T00:36:26.222Z,3.70
2019-05-06T00:39:00.049Z,4.37
2019-05-06T00:41:35.820Z,3.07
2019-05-06T00:44:04.761Z,3.73
2019-05-06T00:46:35.389Z,3.83
2019-05-06T00:49:06.134Z,3.63
2019-05-06T00:51:36.735Z,3.80
2019-05-06T00:54:14.344Z,3.67
2019-05-06T00:56:45.088Z,11.20
2019-05-06T00:59:15.613Z,5.33
2019-05-06T01:01:46.241Z,3.80
2019-05-06T01:04:16.941Z,4.40
2019-05-06T01:06:47.477Z,8.03
2019-05-06T01:09:18.976Z,3.80
2019-05-06T01:11:51.563Z,3.40
2019-05-06T01:14:27.841Z,4.20
2019-05-06T01:16:58.530Z,3.70
2019-05-06T01:19:29.046Z,3.10
2019-05-06T01:21:59.758Z,3.03
2019-05-06T01:24:30.439Z,6.07
2019-05-06T01:27:01.108Z,4.47
2019-05-06T01:29:31.773Z,3.33
2019-05-06T01:32:03.697Z,4.70
2019-05-06T01:34:34.155Z,4.50
2019-05-06T01:37:04.830Z,7.40
2019-05-06T01:39:54.381Z,4.07
2019-05-06T01:42:34.440Z,5.20
2019-05-06T01:45:05.633Z,3.60
2019-05-06T01:47:36.246Z,4.33
2019-05-06T01:50:07.240Z,4.23
2019-05-06T01:52:37.770Z,4.80
2019-05-06T01:55:08.569Z,4.30
2019-05-06T01:57:39.106Z,5.27
2019-05-06T02:00:10.083Z,8.23
2019-05-06T02:02:40.777Z,4.60
2019-05-06T02:05:13.676Z,5.73
2019-05-06T02:07:44.224Z,3.63
2019-05-06T02:10:14.896Z,4.10
2019-05-06T02:12:45.505Z,5.03
2019-05-06T02:15:16.314Z,5.00
2019-05-06T02:17:46.912Z,8.13
2019-05-06T02:20:17.552Z,4.70
2019-05-06T02:23:00.489Z,9.70
2019-05-06T02:25:44.748Z,6.30
2019-05-06T02:28:15.353Z,7.40
2019-05-06T02:31:05.326Z,4.47
2019-05-06T02:33:58.442Z,4.17
2019-05-06T02:36:36.970Z,3.60
2019-05-06T02:39:08.038Z,6.07
2019-05-06T02:41:38.666Z,8.03
2019-05-06T02:44:10.978Z,4.40
2019-05-06T02:46:44.139Z,4.03
2019-05-06T02:49:46.651Z,4.70
2019-05-06T02:52:17.403Z,5.20
2019-05-06T02:54:48.075Z,4.67
2019-05-06T02:57:18.765Z,4.80
2019-05-06T02:59:49.361Z,5.97
2019-05-06T03:02:35.649Z,5.67
2019-05-06T03:04:52.854Z,3.53
2019-05-06T03:07:23.642Z,4.93
2019-05-06T03:09:54.306Z,4.70
2019-05-06T03:12:24.845Z,7.07
2019-05-06T03:14:55.354Z,4.97
2019-05-06T03:17:25.976Z,4.60
2019-05-06T03:19:58.167Z,5.20
2019-05-06T03:22:47.429Z,5.70
2019-05-06T03:25:23.874Z,4.57
2019-05-06T03:27:53.266Z,4.67
2019-05-06T03:30:25.422Z,5.00
2019-05-06T03:33:31.376Z,4.90
2019-05-06T03:35:44.160Z,6.70
2019-05-06T03:38:03.660Z,5.90
2019-05-06T03:40:36.106Z,7.40
2019-05-06T03:43:05.331Z,4.03
2019-05-06T03:45:47.838Z,5.17
2019-05-06T03:48:24.005Z,6.60
2019-05-06T03:50:56.008Z,5.00
2019-05-06T03:53:32.934Z,5.70
2019-05-06T03:56:03.389Z,4.17
2019-05-06T03:58:36.819Z,5.77
2019-05-06T04:01:07.018Z,5.20
2019-05-06T04:03:46.846Z,4.93
2019-05-06T04:06:09.257Z,5.77
2019-05-06T04:08:43.501Z,6.20
2019-05-06T04:11:15.890Z,5.83
2019-05-06T04:13:48.306Z,4.20
2019-05-06T04:16:25.456Z,4.53
2019-05-06T04:19:04.159Z,4.87
2019-05-06T04:21:45.263Z,4.80
2019-05-06T04:24:34.918Z,4.27
2019-05-06T04:27:34.275Z,4.33
2019-05-06T04:30:05.560Z,5.20
2019-05-06T04:32:36.464Z,3.80
2019-05-06T04:35:07.141Z,4.13
2019-05-06T04:37:37.735Z,6.23
2019-05-06T04:40:08.428Z,4.80
2019-05-06T04:42:38.958Z,5.20
2019-05-06T04:45:09.767Z,5.57
2019-05-06T04:47:43.255Z,7.40
2019-05-06T04:50:13.361Z,7.13
2019-05-06T04:52:44.018Z,5.60
2019-05-06T04:55:14.636Z,6.30
2019-05-06T04:57:45.243Z,5.40
2019-05-06T05:00:16.156Z,6.50
2019-05-06T05:02:47.103Z,5.80
2019-05-06T05:05:17.706Z,5.70
2019-05-06T05:07:48.515Z,7.30
2019-05-06T05:10:23.407Z,5.93
2019-05-06T05:13:03.507Z,5.50
2019-05-06T05:15:52.571Z,6.87
2019-05-06T05:18:47.877Z,5.53
2019-05-06T05:21:18.518Z,6.60
2019-05-06T05:23:49.229Z,4.67
2019-05-06T05:26:22.535Z,6.30
2019-05-06T05:28:54.277Z,6.70
2019-05-06T05:31:25.987Z,7.27
2019-05-06T05:33:56.681Z,5.33
2019-05-06T05:36:27.197Z,8.80
2019-05-06T05:38:57.979Z,6.30
2019-05-06T05:41:28.581Z,10.50
2019-05-06T05:44:13.434Z,7.50
2019-05-06T05:46:43.967Z,6.80
2019-05-06T05:49:28.522Z,6.53
2019-05-06T05:51:59.570Z,7.90
2019-05-06T05:54:29.676Z,7.17
2019-05-06T05:56:59.776Z,5.67
2019-05-06T05:59:29.632Z,5.53
2019-05-06T06:02:00.121Z,9.00
2019-05-06T06:04:32.163Z,6.70
2019-05-06T06:07:02.963Z,7.07
2019-05-06T06:09:38.585Z,7.50
2019-05-06T06:12:11.951Z,6.43
2019-05-06T06:14:53.519Z,9.03
2019-05-06T06:17:52.066Z,6.90
2019-05-06T06:20:42.291Z,7.83
2019-05-06T06:23:19.757Z,10.07
2019-05-06T06:25:49.879Z,7.60
2019-05-06T06:28:22.677Z,5.57
2019-05-06T06:31:03.065Z,7.73
2019-05-06T06:33:33.260Z,7.70
2019-05-06T06:36:12.293Z,9.03
2019-05-06T06:38:57.553Z,7.07
2019-05-06T06:41:27.968Z,7.07
2019-05-06T06:44:02.820Z,10.77
2019-05-06T06:46:33.128Z,11.03
2019-05-06T06:49:03.309Z,9.90
2019-05-06T06:51:33.752Z,7.80
2019-05-06T06:54:05.013Z,11.30
2019-05-06T06:57:12.752Z,10.30
2019-05-06T06:59:52.352Z,12.67
2019-05-06T07:02:32.771Z,8.93
2019-05-06T07:05:27.855Z,9.30
2019-05-06T07:07:53.999Z,11.30
2019-05-06T07:10:43.154Z,10.47
2019-05-06T07:13:17.069Z,9.63
2019-05-06T07:15:47.684Z,9.20
2019-05-06T07:18:19.244Z,12.70
2019-05-06T07:21:14.096Z,11.37
2019-05-06T07:23:44.782Z,10.77
2019-05-06T07:26:17.057Z,12.60
2019-05-06T07:28:47.661Z,13.73
2019-05-06T07:31:22.667Z,13.60
2019-05-06T07:33:52.210Z,15.83
2019-05-06T07:36:22.941Z,17.30
2019-05-06T07:38:53.601Z,13.90
2019-05-06T07:41:46.263Z,11.80
2019-05-06T07:44:42.408Z,17.20
2019-05-06T07:47:32.894Z,16.87
2019-05-06T07:50:02.951Z,15.63
2019-05-06T07:52:33.673Z,11.83
2019-05-06T07:55:05.440Z,15.83
2019-05-06T07:57:36.126Z,11.43
2019-05-06T08:00:07.010Z,11.47
2019-05-06T08:02:37.133Z,12.73
2019-05-06T08:05:07.657Z,11.10
2019-05-06T08:07:38.264Z,13.60
2019-05-06T08:10:09.868Z,16.13
2019-05-06T08:12:42.725Z,16.30
2019-05-06T08:15:12.841Z,13.60
2019-05-06T08:17:43.524Z,14.33
2019-05-06T08:20:14.568Z,13.67
2019-05-06T08:23:16.067Z,14.80
2019-05-06T08:25:48.909Z,13.60
2019-05-06T08:28:22.471Z,23.27
2019-05-06T08:30:53.218Z,15.27
2019-05-06T08:33:23.853Z,13.37
2019-05-06T08:36:07.524Z,12.47
2019-05-06T08:38:26.781Z,11.40
2019-05-06T08:40:57.393Z,10.60
2019-05-06T08:43:27.921Z,12.60
2019-05-06T08:45:58.507Z,12.63
2019-05-06T08:48:29.193Z,12.63
2019-05-06T08:51:09.107Z,17.73
2019-05-06T08:53:43.399Z,14.07
2019-05-06T08:56:16.647Z,10.80
2019-05-06T08:58:47.780Z,12.17
2019-05-06T09:01:29.114Z,8.50
2019-05-06T09:04:11.875Z,9.03
2019-05-06T09:06:34.378Z,9.00
2019-05-06T09:09:07.248Z,13.47
2019-05-06T09:11:39.414Z,11.30
2019-05-06T09:14:13.121Z,11.43
2019-05-06T09:16:43.810Z,16.57
2019-05-06T09:19:14.906Z,12.73
2019-05-06T09:21:46.530Z,11.60
2019-05-06T09:24:17.156Z,16.80
2019-05-06T09:26:55.182Z,17.03
2019-05-06T09:29:42.717Z,15.83
2019-05-06T09:32:17.250Z,11.30
2019-05-06T09:34:52.988Z,9.70
2019-05-06T09:37:24.792Z,10.10
2019-05-06T09:39:55.475Z,10.33
2019-05-06T09:42:26.138Z,14.60
2019-05-06T09:44:56.757Z,9.40
2019-05-06T09:47:46.420Z,9.10
2019-05-06T09:50:19.058Z,10.77
2019-05-06T09:52:49.752Z,12.80
2019-05-06T09:55:43.043Z,11.27
2019-05-06T09:58:13.737Z,13.50
2019-05-06T10:00:46.293Z,11.20
2019-05-06T10:03:16.981Z,11.17
2019-05-06T10:05:47.585Z,12.13
2019-05-06T10:08:18.149Z,12.97
2019-05-06T10:10:56.763Z,11.97
2019-05-06T10:13:21.241Z,12.73
2019-05-06T10:15:52.150Z,16.10
2019-05-06T10:18:22.806Z,13.23
2019-05-06T10:20:52.932Z,12.40
2019-05-06T10:23:23.282Z,12.80
2019-05-06T10:25:53.989Z,10.90
2019-05-06T10:28:43.574Z,8.07
2019-05-06T10:31:16.258Z,8.63
2019-05-06T10:34:04.257Z,8.07
2019-05-06T10:36:54.406Z,10.80
2019-05-06T10:39:28.277Z,9.67
2019-05-06T10:42:13.073Z,9.30
2019-05-06T10:45:12.416Z,8.43
2019-05-06T10:47:43.043Z,7.40
2019-05-06T10:50:13.255Z,9.13
2019-05-06T10:53:02.771Z,10.70
2019-05-06T10:55:33.577Z,10.70
2019-05-06T10:58:03.768Z,11.73
2019-05-06T11:00:34.472Z,10.73
2019-05-06T11:03:14.839Z,12.17
2019-05-06T11:05:48.028Z,10.30
2019-05-06T11:08:18.172Z,10.10
2019-05-06T11:10:48.603Z,9.67
2019-05-06T11:13:19.384Z,10.50
2019-05-06T11:15:52.775Z,6.80
2019-05-06T11:18:23.407Z,11.40
2019-05-06T11:20:56.313Z,7.67
2019-05-06T11:23:26.405Z,11.87
2019-05-06T11:25:57.042Z,9.17
2019-05-06T11:28:43.137Z,6.87
2019-05-06T11:31:35.949Z,11.53
2019-05-06T11:34:28.468Z,12.60
2019-05-06T11:37:16.012Z,9.20
2019-05-06T11:39:47.474Z,11.73
2019-05-06T11:42:32.280Z,7.20
2019-05-06T11:44:52.882Z,9.17
2019-05-06T11:47:23.420Z,7.27
2019-05-06T11:49:56.443Z,9.20
2019-05-06T11:52:27.418Z,10.80
2019-05-06T11:54:59.010Z,9.33
2019-05-06T11:57:29.483Z,8.93
2019-05-06T12:00:00.025Z,8.53
2019-05-06T12:02:32.953Z,9.20
2019-05-06T12:05:02.953Z,7.17
2019-05-06T12:07:33.690Z,7.80
2019-05-06T12:10:04.514Z,9.60
2019-05-06T12:12:35.187Z,10.83
2019-05-06T12:15:07.244Z,9.40
2019-05-06T12:17:38.072Z,8.90
2019-05-06T12:20:08.912Z,7.77
2019-05-06T12:22:39.381Z,7.27
2019-05-06T12:25:14.396Z,7.33
2019-05-06T12:27:45.922Z,7.30
2019-05-06T12:30:18.681Z,7.60
2019-05-06T12:33:07.132Z,9.87
2019-05-06T12:35:40.046Z,10.37
2019-05-06T12:38:26.778Z,8.33
2019-05-06T12:40:44.625Z,9.37
2019-05-06T12:43:37.091Z,7.50
2019-05-06T12:46:18.026Z,5.80
2019-05-06T12:48:48.803Z,7.23
2019-05-06T12:51:18.923Z,9.10
2019-05-06T12:53:49.363Z,8.67
2019-05-06T12:56:19.982Z,6.43
2019-05-06T12:58:52.485Z,6.00
2019-05-06T13:01:22.878Z,6.27
2019-05-06T13:03:53.505Z,10.27
2019-05-06T13:06:26.354Z,10.43
2019-05-06T13:09:01.400Z,7.77
2019-05-06T13:11:28.752Z,9.50
2019-05-06T13:14:00.919Z,7.40
2019-05-06T13:16:33.408Z,6.80
2019-05-06T13:19:03.831Z,7.20
2019-05-06T13:21:34.369Z,7.30
2019-05-06T13:24:06.417Z,8.27
2019-05-06T13:26:37.182Z,8.10
2019-05-06T13:29:13.550Z,5.73
2019-05-06T13:31:44.255Z,7.60
2019-05-06T13:34:17.388Z,7.00
2019-05-06T13:36:48.183Z,9.00
2019-05-06T13:39:18.810Z,6.93
2019-05-06T13:41:49.521Z,8.73
2019-05-06T13:44:22.866Z,8.03
2019-05-06T13:46:54.532Z,6.83
2019-05-06T13:49:43.011Z,6.20
2019-05-06T13:52:15.267Z,7.63
2019-05-06T13:54:46.020Z,8.53
2019-05-06T13:57:16.726Z,10.23
2019-05-06T13:59:47.338Z,7.73
2019-05-06T14:02:45.870Z,8.53
2019-05-06T14:05:18.037Z,8.07
2019-05-06T14:07:48.848Z,6.73
2019-05-06T14:10:18.803Z,8.80
2019-05-06T14:12:49.250Z,8.20
2019-05-06T14:15:19.896Z,9.30
2019-05-06T14:17:52.446Z,6.13
2019-05-06T14:20:22.297Z,7.80
2019-05-06T14:22:52.929Z,7.63
2019-05-06T14:25:45.630Z,6.70
2019-05-06T14:28:36.618Z,12.47
2019-05-06T14:31:16.266Z,12.20
2019-05-06T14:33:46.917Z,11.73
2019-05-06T14:36:17.648Z,6.83
2019-05-06T14:38:48.400Z,7.50
2019-05-06T14:41:26.806Z,8.50
2019-05-06T14:43:53.978Z,6.50
2019-05-06T14:46:24.100Z,16.37
2019-05-06T14:48:54.548Z,7.93
2019-05-06T14:51:24.692Z,8.47
2019-05-06T14:53:55.197Z,6.27
2019-05-06T14:56:38.388Z,9.50
2019-05-06T14:59:09.175Z,5.90
2019-05-06T15:01:45.123Z,6.50
2019-05-06T15:04:12.901Z,8.57
2019-05-06T15:06:43.581Z,6.83
2019-05-06T15:09:14.256Z,8.37
2019-05-06T15:11:44.353Z,5.30
2019-05-06T15:14:14.801Z,5.40
2019-05-06T15:16:45.405Z,6.40
2019-05-06T15:19:15.524Z,8.60
2019-05-06T15:21:45.379Z,10.97
2019-05-06T15:24:15.888Z,8.60
2019-05-06T15:26:46.557Z,4.53
2019-05-06T15:29:19.324Z,8.50
2019-05-06T15:32:22.189Z,11.20
2019-05-06T15:35:02.542Z,13.17
2019-05-06T15:37:42.282Z,10.33
2019-05-06T15:40:12.371Z,7.07
2019-05-06T15:42:42.680Z,8.23
2019-05-06T15:45:13.767Z,7.47
2019-05-06T15:47:44.742Z,4.90
2019-05-06T15:50:15.758Z,5.87
2019-05-06T15:52:46.495Z,5.67
2019-05-06T15:55:17.120Z,4.90
2019-05-06T15:57:47.738Z,8.30
2019-05-06T16:00:22.618Z,10.07
2019-05-06T16:02:53.037Z,6.07
2019-05-06T16:05:26.624Z,5.50
2019-05-06T16:07:56.075Z,5.97
2019-05-06T16:10:26.781Z,6.07
2019-05-06T16:12:57.374Z,4.80
2019-05-06T16:15:27.917Z,11.07
2019-05-06T16:17:58.541Z,4.17
2019-05-06T16:20:29.179Z,4.80
2019-05-06T16:23:18.806Z,8.27
2019-05-06T16:25:49.514Z,4.93
2019-05-06T16:28:22.253Z,4.77
2019-05-06T16:30:53.502Z,5.83
2019-05-06T16:33:24.277Z,8.50
2019-05-06T16:35:55.025Z,9.83
2019-05-06T16:38:25.142Z,5.20
2019-05-06T16:41:09.340Z,4.90
2019-05-06T16:43:27.534Z,7.13
2019-05-06T16:45:59.499Z,4.00
2019-05-06T16:48:30.103Z,4.87
2019-05-06T16:51:04.574Z,5.93
2019-05-06T16:53:34.987Z,6.30
2019-05-06T16:56:09.404Z,5.90
2019-05-06T16:58:46.909Z,7.10
2019-05-06T17:01:15.382Z,5.90
2019-05-06T17:03:54.300Z,7.13
2019-05-06T17:06:26.932Z,4.30
2019-05-06T17:08:57.344Z,6.57
2019-05-06T17:11:31.266Z,3.73
2019-05-06T17:13:59.429Z,5.70
2019-05-06T17:16:29.982Z,6.00
2019-05-06T17:19:00.584Z,6.07
2019-05-06T17:21:33.224Z,4.67
2019-05-06T17:24:02.947Z,7.73
2019-05-06T17:26:33.852Z,7.20
2019-05-06T17:29:32.215Z,7.83
2019-05-06T17:32:17.248Z,6.20
2019-05-06T17:34:52.579Z,6.33
2019-05-06T17:37:42.077Z,6.03
2019-05-06T17:40:14.426Z,7.30
2019-05-06T17:42:44.997Z,4.20
2019-05-06T17:45:33.260Z,6.27
2019-05-06T17:48:08.598Z,4.70
2019-05-06T17:50:38.957Z,9.80
2019-05-06T17:53:09.656Z,11.00
2019-05-06T17:55:43.247Z,5.00
2019-05-06T17:58:13.992Z,4.93
2019-05-06T18:00:44.784Z,7.07
2019-05-06T18:03:15.306Z,6.17
2019-05-06T18:05:45.926Z,6.63
2019-05-06T18:08:16.611Z,4.80
2019-05-06T18:10:47.249Z,4.53
2019-05-06T18:13:17.927Z,3.63
2019-05-06T18:15:48.061Z,4.40
2019-05-06T18:18:17.878Z,9.27
2019-05-06T18:20:48.431Z,4.80
2019-05-06T18:23:18.529Z,3.83
2019-05-06T18:25:48.916Z,6.47
2019-05-06T18:28:19.461Z,4.80
2019-05-06T18:30:49.408Z,6.27
2019-05-06T18:33:19.752Z,6.60
2019-05-06T18:35:50.432Z,9.43
2019-05-06T18:38:21.855Z,6.77
2019-05-06T18:40:52.875Z,6.13
2019-05-06T18:43:23.481Z,7.00
2019-05-06T18:45:54.066Z,5.63
2019-05-06T18:48:27.868Z,9.57
2019-05-06T18:50:57.146Z,6.30
2019-05-06T18:53:27.754Z,6.33
2019-05-06T18:55:58.343Z,7.23
2019-05-06T18:58:29.013Z,6.90
2019-05-06T19:00:59.613Z,7.40
2019-05-06T19:03:34.754Z,6.17
2019-05-06T19:06:05.445Z,5.80
2019-05-06T19:08:42.293Z,5.90
2019-05-06T19:11:14.165Z,6.10
2019-05-06T19:13:46.000Z,6.30
2019-05-06T19:16:16.737Z,8.23
2019-05-06T19:18:47.745Z,8.90
2019-05-06T19:21:17.946Z,10.40
2019-05-06T19:23:48.413Z,9.97
2019-05-06T19:26:19.454Z,11.60
2019-05-06T19:28:52.567Z,8.77
2019-05-06T19:31:22.826Z,7.00
2019-05-06T19:33:54.372Z,9.30
2019-05-06T19:36:24.970Z,5.13
2019-05-06T19:38:55.573Z,6.70
2019-05-06T19:41:27.214Z,7.00
2019-05-06T19:43:57.942Z,8.50
2019-05-06T19:46:28.640Z,8.83
2019-05-06T19:48:59.316Z,7.13
2019-05-06T19:51:30.026Z,6.97
2019-05-06T19:54:02.249Z,6.63
2019-05-06T19:56:33.012Z,8.27
2019-05-06T19:59:04.789Z,7.20
2019-05-06T20:01:35.465Z,6.70
2019-05-06T20:04:06.082Z,11.30
2019-05-06T20:06:58.309Z,9.90
2019-05-06T20:09:48.392Z,6.77
2019-05-06T20:12:37.981Z,7.77
2019-05-06T20:15:26.500Z,6.10
2019-05-06T20:17:57.192Z,6.53
2019-05-06T20:20:27.816Z,5.90
2019-05-06T20:22:58.485Z,7.03
2019-05-06T20:25:29.002Z,7.43
2019-05-06T20:27:59.690Z,13.00
2019-05-06T20:30:32.549Z,10.23
2019-05-06T20:33:02.743Z,6.30
2019-05-06T20:35:33.889Z,6.50
2019-05-06T20:38:04.598Z,5.93
2019-05-06T20:40:35.195Z,9.23
2019-05-06T20:43:16.786Z,4.97
2019-05-06T20:45:38.190Z,4.67
2019-05-06T20:48:08.832Z,9.00
2019-05-06T20:50:39.518Z,8.40
2019-05-06T20:53:12.167Z,13.40
2019-05-06T20:55:43.313Z,7.50
2019-05-06T20:58:14.069Z,7.00
2019-05-06T21:00:44.145Z,6.33
2019-05-06T21:03:14.133Z,7.50
2019-05-06T21:05:44.478Z,5.30
2019-05-06T21:08:16.138Z,5.90
2019-05-06T21:10:49.550Z,8.00
2019-05-06T21:13:29.680Z,7.97
2019-05-06T21:15:51.455Z,10.30
2019-05-06T21:18:22.941Z,7.07
2019-05-06T21:20:53.607Z,5.13
2019-05-06T21:23:24.337Z,5.73
2019-05-06T21:25:54.864Z,5.20
2019-05-06T21:28:25.479Z,8.60
2019-05-06T21:30:55.584Z,8.23
2019-05-06T21:33:25.401Z,7.93
2019-05-06T21:35:55.742Z,8.30
2019-05-06T21:38:25.837Z,7.70
2019-05-06T21:40:56.325Z,6.80
2019-05-06T21:43:26.899Z,8.47
2019-05-06T21:45:57.422Z,7.70
2019-05-06T21:48:27.997Z,6.73
2019-05-06T21:50:58.536Z,5.80
2019-05-06T21:53:29.049Z,6.77
2019-05-06T21:55:59.592Z,5.33
2019-05-06T21:58:30.102Z,6.63
2019-05-06T22:01:05.589Z,5.23
2019-05-06T22:03:37.873Z,6.03
2019-05-06T22:06:08.504Z,6.67
2019-05-06T22:08:39.033Z,6.40
2019-05-06T22:11:09.647Z,6.67
2019-05-06T22:13:39.742Z,7.50
2019-05-06T22:16:12.282Z,6.57
2019-05-06T22:18:43.317Z,7.67
2019-05-06T22:21:25.159Z,13.40
2019-05-06T22:24:03.976Z,7.63
2019-05-06T22:26:32.614Z,6.00
2019-05-06T22:29:03.264Z,5.83
2019-05-06T22:31:33.882Z,7.40
2019-05-06T22:34:04.469Z,8.43
2019-05-06T22:36:35.012Z,9.30
2019-05-06T22:39:06.806Z,13.87
2019-05-06T22:41:39.065Z,9.37
2019-05-06T22:44:16.455Z,8.50
2019-05-06T22:46:43.017Z,9.10
2019-05-06T22:49:13.681Z,10.33
2019-05-06T22:51:44.301Z,8.80
2019-05-06T22:54:14.985Z,8.63
2019-05-06T22:56:45.525Z,10.33
2019-05-06T22:59:16.062Z,7.77
2019-05-06T23:02:05.708Z,9.60
2019-05-06T23:04:37.201Z,10.00
2019-05-06T23:07:07.822Z,9.73
2019-05-06T23:09:37.917Z,10.70
2019-05-06T23:12:08.345Z,12.53
2019-05-06T23:14:38.950Z,9.13
2019-05-06T23:17:09.648Z,9.30
2019-05-06T23:19:42.614Z,9.23
2019-05-06T23:22:12.578Z,11.87
2019-05-06T23:24:43.181Z,9.00
2019-05-06T23:27:13.782Z,15.10
2019-05-06T23:29:44.978Z,10.20
2019-05-06T23:32:15.809Z,9.00
2019-05-06T23:34:46.323Z,8.87
2019-05-06T23:37:19.836Z,10.37
2019-05-06T23:40:28.131Z,9.33
2019-05-06T23:43:33.896Z,11.00
2019-05-06T23:46:40.271Z,9.37
2019-05-06T23:49:46.433Z,10.47
2019-05-06T23:52:52.320Z,10.80
2019-05-06T23:55:58.609Z,8.23
2019-05-06T23:58:32.060Z,6.90
